Shishmaref, AK

1:12 AM AKDT on September 25, 2016 (GMT -0800)
New Shishmaref

Weather History for PASH - June, 2014

Change the Weather History Date:

Saturday, June 7, 2014

  Actual Average Record
Temperature  
Mean Temperature 32 °F -  
Max Temperature 35 °F 37 °F 46 °F (2004)
Min Temperature 30 °F 29 °F 28 °F (2001)
Degree Days  
Heating Degree Days 32    
Moisture  
Dew Point 31 °F    
Average Humidity 93    
Maximum Humidity 100    
Minimum Humidity 86    
Precipitation  
Precipitation 0.14 in - - ()
Sea Level Pressure  
Sea Level Pressure 29.85 in    
Wind  
Wind Speed 8 mph (NNW)    
Max Wind Speed 13 mph    
Max Gust Speed -    
Visibility 6 miles    
Events      
Averages and records for this station are not official NWS values.
T = Trace of Precipitation, MM = Missing Value Source: NWS Daily Summary

Daily Weather History Graph

Daily Weather History Graph

Search for Another Location

Airport or City:

Trip Planner

Search our weather history database for the weather conditions in past years. The results will help you decide how hot, cold, wet, or windy it might be!

Date:

Astronomy

Jun. 07, 2014 Rise Set
Actual Time 3:30 AM AKDT 2:45 AM AKDT
Civil Twilight Sun does not set Sun does not set
Nautical Twilight Sun does not set Sun does not set
Astronomical Twilight Sun does not set Sun does not set
Moon 5:39 PM AKDT (6/7) 3:40 AM AKDT (6/7)
Length of Visible Light 24h 00m
Length of Day
23h 15m
Waxing Gibbous, 69% of the Moon is Illuminated
Jun 7
Waxing Gibbous
Jun 12
Full
Jun 19
Last Quarter
Jun 27
New
Jul 5
First Quarter

Hourly Weather History & Observations

Time (AKDT) Temp. Windchill Dew Point Humidity Pressure Visibility Wind Dir Wind Speed Gust Speed Precip Events Conditions
12:16 AM 32.0 °F 23.6 °F 28.4 °F 87% 29.98 in 10.0 mi NNW 10.4 mph - N/A   Overcast
12:36 AM 30.2 °F 20.2 °F 28.4 °F 93% 29.98 in 10.0 mi NW 12.7 mph - N/A   Overcast
12:56 AM 30.2 °F 22.6 °F 28.4 °F 93% 29.98 in 10.0 mi NW 8.1 mph - N/A   Overcast
1:16 AM 30.2 °F 21.9 °F 28.4 °F 93% 29.97 in 5.0 mi NW 9.2 mph - N/A   Overcast
1:36 AM 30.2 °F 21.9 °F 28.4 °F 93% 29.97 in 4.0 mi NNW 9.2 mph - N/A   Overcast
1:56 AM 30.2 °F 20.8 °F 28.4 °F 93% 29.96 in 4.0 mi NNW 11.5 mph - N/A   Overcast
2:16 AM 30.2 °F 20.2 °F 26.6 °F 86% 29.96 in 7.0 mi NNW 12.7 mph - N/A   Overcast
2:36 AM 30.2 °F 21.3 °F 26.6 °F 86% 29.96 in 10.0 mi NNW 10.4 mph - N/A   Overcast
2:56 AM 30.2 °F 21.3 °F 26.6 °F 86% 29.95 in 4.0 mi NNW 10.4 mph - N/A   Overcast
3:16 AM 30.2 °F 22.6 °F 26.6 °F 86% 29.95 in 5.0 mi NW 8.1 mph - N/A   Overcast
3:36 AM 30.2 °F 21.9 °F 26.6 °F 86% 29.95 in 3.0 mi NNW 9.2 mph - N/A   Overcast
4:16 AM 30.2 °F 23.4 °F 28.4 °F 93% 29.94 in 7.0 mi NW 6.9 mph - N/A   Overcast
4:56 AM 30.2 °F 21.9 °F 28.4 °F 93% 29.93 in 10.0 mi NW 9.2 mph - N/A   Overcast
5:16 AM 30.2 °F 21.9 °F 28.4 °F 93% 29.92 in 10.0 mi NW 9.2 mph - N/A   Overcast
5:36 AM 30.2 °F 21.9 °F 28.4 °F 93% 29.91 in 10.0 mi NW 9.2 mph - N/A   Overcast
5:56 AM 30.2 °F 21.9 °F 28.4 °F 93% 29.91 in 10.0 mi NW 9.2 mph - N/A   Overcast
6:16 AM 30.2 °F 23.4 °F 28.4 °F 93% 29.91 in 7.0 mi NW 6.9 mph - N/A   Overcast
6:36 AM 30.2 °F 23.4 °F 28.4 °F 93% 29.90 in 7.0 mi NW 6.9 mph - N/A   Overcast
6:56 AM 30.2 °F 24.3 °F 28.4 °F 93% 29.90 in 10.0 mi NW 5.8 mph - N/A   Overcast
7:16 AM 30.2 °F 23.4 °F 28.4 °F 93% 29.89 in 10.0 mi WNW 6.9 mph - N/A   Overcast
7:36 AM 30.2 °F 23.4 °F 30.2 °F 100% 29.88 in 10.0 mi NW 6.9 mph - N/A   Overcast
7:56 AM 32.0 °F 24.8 °F 30.2 °F 93% 29.88 in 8.0 mi NW 8.1 mph - N/A   Overcast
8:16 AM 32.0 °F 24.8 °F 30.2 °F 93% 29.87 in 10.0 mi NW 8.1 mph - N/A   Overcast
8:36 AM 32.0 °F 25.6 °F 30.2 °F 93% 29.87 in 10.0 mi NW 6.9 mph - N/A   Overcast
8:56 AM 32.0 °F 27.5 °F 30.2 °F 93% 29.87 in 10.0 mi WNW 4.6 mph - N/A   Overcast
9:16 AM 32.0 °F 25.6 °F 30.2 °F 93% 29.87 in 9.0 mi WNW 6.9 mph - N/A   Overcast
9:36 AM 32.0 °F 25.6 °F 30.2 °F 93% 29.86 in 6.0 mi WNW 6.9 mph - N/A   Overcast
9:56 AM 32.0 °F 25.6 °F 30.2 °F 93% 29.86 in 5.0 mi WNW 6.9 mph - N/A   Overcast
10:16 AM 33.8 °F 29.6 °F 30.2 °F 87% 29.86 in 2.5 mi West 4.6 mph - N/A   Overcast
10:36 AM 33.8 °F 29.6 °F 30.2 °F 87% 29.85 in 1.2 mi WNW 4.6 mph - N/A   Overcast
10:56 AM 33.8 °F 29.6 °F 30.2 °F 87% 29.85 in 0.5 mi West 4.6 mph - N/A   Overcast
11:16 AM 33.8 °F 29.6 °F 32.0 °F 93% 29.84 in 0.5 mi West 4.6 mph - N/A   Overcast
11:36 AM 33.8 °F 29.6 °F 32.0 °F 93% 29.84 in 0.8 mi NW 4.6 mph - N/A   Overcast
11:56 AM 33.8 °F 29.6 °F 30.2 °F 87% 29.84 in 0.5 mi NW 4.6 mph - N/A   Overcast
12:16 PM 33.8 °F 30.8 °F 30.2 °F 87% 29.84 in 0.2 mi West 3.5 mph - N/A   Overcast
12:36 PM 33.8 °F 30.8 °F 30.2 °F 87% 29.83 in 0.2 mi WNW 3.5 mph - N/A   Overcast
12:56 PM 33.8 °F 30.8 °F 32.0 °F 93% 29.83 in 0.2 mi West 3.5 mph - N/A   Overcast
1:16 PM 33.8 °F 30.8 °F 32.0 °F 93% 29.83 in 0.2 mi WNW 3.5 mph - N/A   Overcast
1:36 PM 33.8 °F 29.6 °F 32.0 °F 93% 29.82 in 0.2 mi WNW 4.6 mph - N/A   Overcast
1:56 PM 33.8 °F 30.8 °F 33.8 °F 100% 29.82 in 0.2 mi WNW 3.5 mph - N/A   Overcast
2:16 PM 33.8 °F 28.6 °F 32.0 °F 93% 29.81 in 0.5 mi NW 5.8 mph - N/A   Overcast
2:36 PM 33.8 °F 29.6 °F 32.0 °F 93% 29.81 in 6.0 mi North 4.6 mph - N/A   Overcast
2:56 PM 35.6 °F 29.9 °F 33.8 °F 93% 29.81 in 10.0 mi North 6.9 mph - N/A   Overcast
3:16 PM 35.6 °F 29.9 °F 33.8 °F 93% 29.81 in 10.0 mi NNE 6.9 mph - N/A   Overcast
3:36 PM 35.6 °F 29.2 °F 33.8 °F 93% 29.80 in 10.0 mi NNE 8.1 mph - N/A   Overcast
3:56 PM 35.6 °F 29.9 °F 33.8 °F 93% 29.80 in 10.0 mi NNE 6.9 mph - N/A   Overcast
4:16 PM 35.6 °F 29.9 °F 33.8 °F 93% 29.80 in 5.0 mi NNE 6.9 mph - N/A   Overcast
4:36 PM 35.6 °F 29.2 °F 33.8 °F 93% 29.80 in 3.0 mi North 8.1 mph - N/A   Overcast
4:56 PM 35.6 °F 28.6 °F 33.8 °F 93% 29.80 in 8.0 mi NNE 9.2 mph - N/A   Overcast
5:16 PM 33.8 °F 26.4 °F 33.8 °F 100% 29.79 in 10.0 mi NNE 9.2 mph - N/A   Overcast
5:36 PM 35.6 °F 28.6 °F 33.8 °F 93% 29.79 in 10.0 mi NNE 9.2 mph - N/A   Overcast
5:56 PM 33.8 °F 26.4 °F 32.0 °F 93% 29.79 in 10.0 mi North 9.2 mph - N/A   Overcast
6:16 PM 33.8 °F 27.0 °F 32.0 °F 93% 29.79 in 9.0 mi North 8.1 mph - N/A   Overcast
6:36 PM 35.6 °F 30.7 °F 33.8 °F 93% 29.79 in 10.0 mi North 5.8 mph - N/A   Overcast
6:56 PM 35.6 °F 29.9 °F 33.8 °F 93% 29.79 in 5.0 mi North 6.9 mph - 0.01 in   Overcast
7:16 PM 33.8 °F 27.0 °F 33.8 °F 100% 29.79 in 4.0 mi NNE 8.1 mph - 0.01 in   Overcast
7:36 PM 35.6 °F 28.6 °F 33.8 °F 93% 29.78 in 5.0 mi NNE 9.2 mph - 0.02 in   Overcast
7:56 PM 33.8 °F 27.0 °F 33.8 °F 100% 29.78 in 6.0 mi North 8.1 mph - 0.02 in   Overcast
8:16 PM 33.8 °F 26.4 °F 33.8 °F 100% 29.78 in 5.0 mi North 9.2 mph - N/A   Overcast
8:36 PM 33.8 °F 27.7 °F 32.0 °F 93% 29.77 in 5.0 mi North 6.9 mph - N/A   Overcast
8:56 PM 33.8 °F 29.6 °F 32.0 °F 93% 29.77 in 5.0 mi North 4.6 mph - 0.01 in   Overcast
9:16 PM 33.8 °F 27.7 °F 32.0 °F 93% 29.77 in 4.0 mi North 6.9 mph - N/A   Overcast
9:36 PM 33.8 °F 28.6 °F 32.0 °F 93% 29.78 in 5.0 mi North 5.8 mph - 0.01 in   Overcast
9:56 PM 33.8 °F 27.7 °F 32.0 °F 93% 29.78 in 5.0 mi North 6.9 mph - 0.02 in   Overcast
10:16 PM 33.8 °F 29.6 °F 32.0 °F 93% 29.78 in 3.0 mi North 4.6 mph - 0.01 in   Mostly Cloudy
10:36 PM 33.8 °F 28.6 °F 32.0 °F 93% 29.78 in 4.0 mi North 5.8 mph - 0.03 in   Overcast
10:56 PM 33.8 °F 28.6 °F 32.0 °F 93% 29.78 in 3.0 mi NNE 5.8 mph - 0.05 in   Overcast
11:16 PM 33.8 °F 29.6 °F 32.0 °F 93% 29.77 in 3.0 mi North 4.6 mph - 0.01 in   Overcast
11:36 PM 33.8 °F 28.6 °F 32.0 °F 93% 29.77 in 3.0 mi North 5.8 mph - 0.02 in   Overcast
11:56 PM 33.8 °F 27.7 °F 32.0 °F 93% 29.77 in 5.0 mi NNW 6.9 mph - 0.03 in   Overcast